sensor_id;sensor_type;location;lat;lon;timestamp;P1;durP1;ratioP1;P2;durP2;ratioP2
58468;SDS011;44257;44.804;10.220;2022-10-31T00:00:51;2.97;;;1.27;;
58468;SDS011;44257;44.804;10.220;2022-10-31T00:03:17;1.10;;;0.75;;
58468;SDS011;44257;44.804;10.220;2022-10-31T00:05:44;2.53;;;1.13;;
58468;SDS011;44257;44.804;10.220;2022-10-31T00:08:11;3.33;;;1.52;;
58468;SDS011;44257;44.804;10.220;2022-10-31T00:10:40;5.38;;;1.55;;
58468;SDS011;44257;44.804;10.220;2022-10-31T00:13:08;1.70;;;1.10;;
58468;SDS011;44257;44.804;10.220;2022-10-31T00:15:35;2.38;;;1.83;;
58468;SDS011;44257;44.804;10.220;2022-10-31T00:18:02;3.08;;;1.48;;
58468;SDS011;44257;44.804;10.220;2022-10-31T00:20:28;1.83;;;1.08;;
58468;SDS011;44257;44.804;10.220;2022-10-31T00:22:59;4.05;;;1.50;;
58468;SDS011;44257;44.804;10.220;2022-10-31T00:25:26;5.93;;;2.38;;
58468;SDS011;44257;44.804;10.220;2022-10-31T00:27:53;2.40;;;0.85;;
58468;SDS011;44257;44.804;10.220;2022-10-31T00:30:19;1.20;;;0.88;;
58468;SDS011;44257;44.804;10.220;2022-10-31T00:32:46;0.98;;;0.82;;
58468;SDS011;44257;44.804;10.220;2022-10-31T00:35:11;2.10;;;1.20;;
58468;SDS011;44257;44.804;10.220;2022-10-31T00:37:37;1.67;;;0.80;;
58468;SDS011;44257;44.804;10.220;2022-10-31T00:40:03;3.75;;;2.00;;
58468;SDS011;44257;44.804;10.220;2022-10-31T00:42:30;1.60;;;0.80;;
58468;SDS011;44257;44.804;10.220;2022-10-31T00:44:57;1.58;;;1.05;;
58468;SDS011;44257;44.804;10.220;2022-10-31T00:47:23;1.52;;;1.00;;
58468;SDS011;44257;44.804;10.220;2022-10-31T00:49:49;0.50;;;0.50;;
58468;SDS011;44257;44.804;10.220;2022-10-31T00:52:14;2.22;;;1.33;;
58468;SDS011;44257;44.804;10.220;2022-10-31T00:54:41;1.60;;;0.77;;
58468;SDS011;44257;44.804;10.220;2022-10-31T00:57:07;1.75;;;1.38;;
58468;SDS011;44257;44.804;10.220;2022-10-31T00:59:33;2.45;;;1.35;;
58468;SDS011;44257;44.804;10.220;2022-10-31T01:01:59;2.17;;;1.10;;
58468;SDS011;44257;44.804;10.220;2022-10-31T01:04:24;2.35;;;1.50;;
58468;SDS011;44257;44.804;10.220;2022-10-31T01:06:50;1.70;;;1.08;;
58468;SDS011;44257;44.804;10.220;2022-10-31T01:09:16;2.15;;;1.17;;
58468;SDS011;44257;44.804;10.220;2022-10-31T01:11:42;2.00;;;1.15;;
58468;SDS011;44257;44.804;10.220;2022-10-31T01:14:08;4.28;;;1.00;;
58468;SDS011;44257;44.804;10.220;2022-10-31T01:16:34;2.78;;;0.57;;
58468;SDS011;44257;44.804;10.220;2022-10-31T01:19:00;2.45;;;1.63;;
58468;SDS011;44257;44.804;10.220;2022-10-31T01:21:27;2.03;;;0.90;;
58468;SDS011;44257;44.804;10.220;2022-10-31T01:23:57;2.10;;;1.05;;
58468;SDS011;44257;44.804;10.220;2022-10-31T01:26:24;4.07;;;1.75;;
58468;SDS011;44257;44.804;10.220;2022-10-31T01:28:54;2.78;;;1.60;;
58468;SDS011;44257;44.804;10.220;2022-10-31T01:31:26;3.00;;;1.08;;
58468;SDS011;44257;44.804;10.220;2022-10-31T01:33:54;1.67;;;1.13;;
58468;SDS011;44257;44.804;10.220;2022-10-31T01:38:50;1.77;;;1.20;;
58468;SDS011;44257;44.804;10.220;2022-10-31T01:41:19;1.67;;;1.23;;
58468;SDS011;44257;44.804;10.220;2022-10-31T01:43:48;1.35;;;1.05;;
58468;SDS011;44257;44.804;10.220;2022-10-31T01:46:15;1.85;;;1.35;;
58468;SDS011;44257;44.804;10.220;2022-10-31T01:48:44;1.65;;;0.90;;
58468;SDS011;44257;44.804;10.220;2022-10-31T01:51:11;1.45;;;0.90;;
58468;SDS011;44257;44.804;10.220;2022-10-31T01:53:40;1.73;;;1.00;;
58468;SDS011;44257;44.804;10.220;2022-10-31T01:56:08;1.17;;;0.80;;
58468;SDS011;44257;44.804;10.220;2022-10-31T01:58:37;2.67;;;1.17;;
58468;SDS011;44257;44.804;10.220;2022-10-31T02:01:04;1.25;;;0.80;;
58468;SDS011;44257;44.804;10.220;2022-10-31T02:03:30;0.70;;;0.63;;
58468;SDS011;44257;44.804;10.220;2022-10-31T02:05:56;7.00;;;1.92;;
58468;SDS011;44257;44.804;10.220;2022-10-31T02:08:27;1.30;;;0.85;;
58468;SDS011;44257;44.804;10.220;2022-10-31T02:10:55;1.75;;;1.20;;
58468;SDS011;44257;44.804;10.220;2022-10-31T02:13:22;1.20;;;0.60;;
58468;SDS011;44257;44.804;10.220;2022-10-31T02:15:50;2.30;;;1.73;;
58468;SDS011;44257;44.804;10.220;2022-10-31T02:18:24;1.58;;;1.05;;
58468;SDS011;44257;44.804;10.220;2022-10-31T02:26:52;2.50;;;1.05;;
58468;SDS011;44257;44.804;10.220;2022-10-31T02:37:39;2.92;;;1.88;;
58468;SDS011;44257;44.804;10.220;2022-10-31T02:40:15;2.35;;;1.15;;
58468;SDS011;44257;44.804;10.220;2022-10-31T02:43:10;2.17;;;0.93;;
58468;SDS011;44257;44.804;10.220;2022-10-31T02:45:56;1.63;;;1.13;;
58468;SDS011;44257;44.804;10.220;2022-10-31T02:48:31;2.22;;;1.08;;
58468;SDS011;44257;44.804;10.220;2022-10-31T02:51:02;1.63;;;0.70;;
58468;SDS011;44257;44.804;10.220;2022-10-31T02:53:36;1.02;;;0.73;;
58468;SDS011;44257;44.804;10.220;2022-10-31T02:56:16;2.65;;;1.63;;
58468;SDS011;44257;44.804;10.220;2022-10-31T02:58:54;1.85;;;0.70;;
58468;SDS011;44257;44.804;10.220;2022-10-31T03:07:14;3.15;;;1.67;;
58468;SDS011;44257;44.804;10.220;2022-10-31T03:09:59;3.53;;;1.17;;
58468;SDS011;44257;44.804;10.220;2022-10-31T03:17:57;1.55;;;0.70;;
58468;SDS011;44257;44.804;10.220;2022-10-31T03:20:34;3.08;;;1.48;;
58468;SDS011;44257;44.804;10.220;2022-10-31T03:23:06;1.25;;;0.80;;
58468;SDS011;44257;44.804;10.220;2022-10-31T03:25:36;4.20;;;1.73;;
58468;SDS011;44257;44.804;10.220;2022-10-31T03:28:04;0.75;;;0.60;;
58468;SDS011;44257;44.804;10.220;2022-10-31T03:30:31;3.08;;;1.30;;
58468;SDS011;44257;44.804;10.220;2022-10-31T03:33:01;1.20;;;0.88;;
58468;SDS011;44257;44.804;10.220;2022-10-31T03:35:31;4.68;;;1.33;;
58468;SDS011;44257;44.804;10.220;2022-10-31T03:38:01;3.13;;;1.55;;
58468;SDS011;44257;44.804;10.220;2022-10-31T03:40:28;2.13;;;1.15;;
58468;SDS011;44257;44.804;10.220;2022-10-31T03:42:58;2.20;;;0.88;;
58468;SDS011;44257;44.804;10.220;2022-10-31T03:45:33;1.33;;;0.98;;
58468;SDS011;44257;44.804;10.220;2022-10-31T03:48:04;1.17;;;1.00;;
58468;SDS011;44257;44.804;10.220;2022-10-31T03:50:38;1.70;;;0.82;;
58468;SDS011;44257;44.804;10.220;2022-10-31T03:53:25;3.05;;;1.50;;
58468;SDS011;44257;44.804;10.220;2022-10-31T03:56:12;1.73;;;1.10;;
58468;SDS011;44257;44.804;10.220;2022-10-31T04:01:31;2.05;;;0.80;;
58468;SDS011;44257;44.804;10.220;2022-10-31T04:04:00;3.65;;;0.77;;
58468;SDS011;44257;44.804;10.220;2022-10-31T04:06:27;1.50;;;1.23;;
58468;SDS011;44257;44.804;10.220;2022-10-31T04:08:55;1.38;;;0.90;;
58468;SDS011;44257;44.804;10.220;2022-10-31T04:11:28;5.05;;;1.65;;
58468;SDS011;44257;44.804;10.220;2022-10-31T04:14:16;2.03;;;1.48;;
58468;SDS011;44257;44.804;10.220;2022-10-31T04:16:42;2.50;;;0.80;;
58468;SDS011;44257;44.804;10.220;2022-10-31T04:19:10;3.38;;;0.93;;
58468;SDS011;44257;44.804;10.220;2022-10-31T04:21:37;1.73;;;0.95;;
58468;SDS011;44257;44.804;10.220;2022-10-31T04:24:03;1.63;;;0.90;;
58468;SDS011;44257;44.804;10.220;2022-10-31T04:26:29;2.10;;;0.82;;
58468;SDS011;44257;44.804;10.220;2022-10-31T04:28:56;0.88;;;0.40;;
58468;SDS011;44257;44.804;10.220;2022-10-31T04:31:25;3.25;;;1.50;;
58468;SDS011;44257;44.804;10.220;2022-10-31T04:33:51;2.85;;;1.00;;
58468;SDS011;44257;44.804;10.220;2022-10-31T04:36:17;2.25;;;1.27;;
58468;SDS011;44257;44.804;10.220;2022-10-31T04:38:43;1.25;;;0.88;;
58468;SDS011;44257;44.804;10.220;2022-10-31T04:41:22;1.98;;;0.88;;
58468;SDS011;44257;44.804;10.220;2022-10-31T04:43:51;1.00;;;0.75;;
58468;SDS011;44257;44.804;10.220;2022-10-31T04:46:18;1.20;;;0.70;;
58468;SDS011;44257;44.804;10.220;2022-10-31T04:48:43;1.48;;;0.73;;
58468;SDS011;44257;44.804;10.220;2022-10-31T04:51:10;5.97;;;1.80;;
58468;SDS011;44257;44.804;10.220;2022-10-31T04:53:36;1.65;;;1.00;;
58468;SDS011;44257;44.804;10.220;2022-10-31T04:56:20;1.25;;;0.63;;
58468;SDS011;44257;44.804;10.220;2022-10-31T04:58:50;2.72;;;2.05;;
58468;SDS011;44257;44.804;10.220;2022-10-31T05:01:17;1.58;;;0.77;;
58468;SDS011;44257;44.804;10.220;2022-10-31T05:03:44;0.57;;;0.57;;
58468;SDS011;44257;44.804;10.220;2022-10-31T05:06:10;3.53;;;1.33;;
58468;SDS011;44257;44.804;10.220;2022-10-31T05:08:39;0.95;;;0.68;;
58468;SDS011;44257;44.804;10.220;2022-10-31T05:11:06;0.82;;;0.47;;
58468;SDS011;44257;44.804;10.220;2022-10-31T05:13:32;1.80;;;0.68;;
58468;SDS011;44257;44.804;10.220;2022-10-31T05:16:21;2.70;;;1.02;;
58468;SDS011;44257;44.804;10.220;2022-10-31T05:19:13;2.08;;;0.85;;
58468;SDS011;44257;44.804;10.220;2022-10-31T05:21:57;1.30;;;0.75;;
58468;SDS011;44257;44.804;10.220;2022-10-31T05:24:23;1.25;;;0.75;;
58468;SDS011;44257;44.804;10.220;2022-10-31T05:26:49;1.02;;;0.90;;
58468;SDS011;44257;44.804;10.220;2022-10-31T05:29:16;3.90;;;1.10;;
58468;SDS011;44257;44.804;10.220;2022-10-31T05:31:42;2.70;;;1.45;;
58468;SDS011;44257;44.804;10.220;2022-10-31T05:34:19;5.05;;;1.08;;
58468;SDS011;44257;44.804;10.220;2022-10-31T05:37:03;1.45;;;0.73;;
58468;SDS011;44257;44.804;10.220;2022-10-31T05:39:29;5.13;;;0.98;;
58468;SDS011;44257;44.804;10.220;2022-10-31T05:41:59;1.38;;;1.17;;
58468;SDS011;44257;44.804;10.220;2022-10-31T05:44:25;1.75;;;1.05;;
58468;SDS011;44257;44.804;10.220;2022-10-31T05:47:11;1.05;;;0.70;;
58468;SDS011;44257;44.804;10.220;2022-10-31T05:49:56;3.35;;;1.45;;
58468;SDS011;44257;44.804;10.220;2022-10-31T05:52:45;1.20;;;0.73;;
58468;SDS011;44257;44.804;10.220;2022-10-31T05:55:28;1.25;;;0.88;;
58468;SDS011;44257;44.804;10.220;2022-10-31T05:58:03;1.33;;;0.70;;
58468;SDS011;44257;44.804;10.220;2022-10-31T06:00:30;1.33;;;1.08;;
58468;SDS011;44257;44.804;10.220;2022-10-31T06:03:05;1.40;;;0.60;;
58468;SDS011;44257;44.804;10.220;2022-10-31T06:06:01;0.57;;;0.40;;
58468;SDS011;44257;44.804;10.220;2022-10-31T06:08:39;1.92;;;1.05;;
58468;SDS011;44257;44.804;10.220;2022-10-31T06:11:14;2.15;;;0.98;;
58468;SDS011;44257;44.804;10.220;2022-10-31T06:13:58;1.17;;;0.85;;
58468;SDS011;44257;44.804;10.220;2022-10-31T06:16:32;1.27;;;1.00;;
58468;SDS011;44257;44.804;10.220;2022-10-31T06:19:13;1.05;;;0.50;;
58468;SDS011;44257;44.804;10.220;2022-10-31T06:21:39;1.33;;;0.70;;
58468;SDS011;44257;44.804;10.220;2022-10-31T06:24:06;5.50;;;2.50;;
58468;SDS011;44257;44.804;10.220;2022-10-31T06:26:51;1.75;;;0.93;;
58468;SDS011;44257;44.804;10.220;2022-10-31T06:29:17;7.75;;;1.70;;
58468;SDS011;44257;44.804;10.220;2022-10-31T06:32:04;2.72;;;1.38;;
58468;SDS011;44257;44.804;10.220;2022-10-31T06:34:35;1.65;;;1.05;;
58468;SDS011;44257;44.804;10.220;2022-10-31T06:37:00;0.88;;;0.68;;
58468;SDS011;44257;44.804;10.220;2022-10-31T06:39:28;0.43;;;0.40;;
58468;SDS011;44257;44.804;10.220;2022-10-31T06:41:54;2.70;;;1.00;;
58468;SDS011;44257;44.804;10.220;2022-10-31T06:44:22;3.25;;;0.95;;
58468;SDS011;44257;44.804;10.220;2022-10-31T06:49:38;1.67;;;1.02;;
58468;SDS011;44257;44.804;10.220;2022-10-31T06:52:10;0.75;;;0.68;;
58468;SDS011;44257;44.804;10.220;2022-10-31T06:54:36;4.57;;;1.08;;
58468;SDS011;44257;44.804;10.220;2022-10-31T06:57:03;2.50;;;0.88;;
58468;SDS011;44257;44.804;10.220;2022-10-31T06:59:30;1.80;;;1.15;;
58468;SDS011;44257;44.804;10.220;2022-10-31T07:02:15;1.42;;;0.77;;
58468;SDS011;44257;44.804;10.220;2022-10-31T07:04:42;1.23;;;0.73;;
58468;SDS011;44257;44.804;10.220;2022-10-31T07:07:12;6.90;;;0.85;;
58468;SDS011;44257;44.804;10.220;2022-10-31T07:09:39;2.70;;;1.23;;
58468;SDS011;44257;44.804;10.220;2022-10-31T07:12:08;1.20;;;0.82;;
58468;SDS011;44257;44.804;10.220;2022-10-31T07:14:38;1.42;;;0.93;;
58468;SDS011;44257;44.804;10.220;2022-10-31T07:17:04;3.92;;;1.15;;
58468;SDS011;44257;44.804;10.220;2022-10-31T07:19:33;5.13;;;1.65;;
58468;SDS011;44257;44.804;10.220;2022-10-31T07:22:00;2.85;;;0.93;;
58468;SDS011;44257;44.804;10.220;2022-10-31T07:24:28;2.67;;;1.02;;
58468;SDS011;44257;44.804;10.220;2022-10-31T07:26:55;0.85;;;0.65;;
58468;SDS011;44257;44.804;10.220;2022-10-31T07:29:21;3.33;;;1.00;;
58468;SDS011;44257;44.804;10.220;2022-10-31T07:31:48;0.90;;;0.63;;
58468;SDS011;44257;44.804;10.220;2022-10-31T07:34:20;1.92;;;1.08;;
58468;SDS011;44257;44.804;10.220;2022-10-31T07:37:05;2.75;;;1.90;;
58468;SDS011;44257;44.804;10.220;2022-10-31T07:39:31;2.50;;;0.70;;
58468;SDS011;44257;44.804;10.220;2022-10-31T07:41:58;2.03;;;0.73;;
58468;SDS011;44257;44.804;10.220;2022-10-31T07:44:24;1.27;;;0.75;;
58468;SDS011;44257;44.804;10.220;2022-10-31T07:47:22;1.60;;;1.00;;
58468;SDS011;44257;44.804;10.220;2022-10-31T07:50:07;1.23;;;0.63;;
58468;SDS011;44257;44.804;10.220;2022-10-31T07:52:57;1.90;;;0.77;;
58468;SDS011;44257;44.804;10.220;2022-10-31T07:55:41;1.20;;;0.70;;
58468;SDS011;44257;44.804;10.220;2022-10-31T07:58:12;2.90;;;0.60;;
58468;SDS011;44257;44.804;10.220;2022-10-31T08:00:40;0.60;;;0.50;;
58468;SDS011;44257;44.804;10.220;2022-10-31T08:03:17;1.70;;;1.10;;
58468;SDS011;44257;44.804;10.220;2022-10-31T08:06:02;1.10;;;0.57;;
58468;SDS011;44257;44.804;10.220;2022-10-31T08:09:06;2.03;;;0.70;;
58468;SDS011;44257;44.804;10.220;2022-10-31T08:11:32;1.33;;;0.80;;
58468;SDS011;44257;44.804;10.220;2022-10-31T08:13:59;3.00;;;1.17;;
58468;SDS011;44257;44.804;10.220;2022-10-31T08:16:26;0.80;;;0.65;;
58468;SDS011;44257;44.804;10.220;2022-10-31T08:18:56;0.80;;;0.50;;
58468;SDS011;44257;44.804;10.220;2022-10-31T08:21:22;1.63;;;1.00;;
58468;SDS011;44257;44.804;10.220;2022-10-31T08:23:48;5.13;;;1.00;;
58468;SDS011;44257;44.804;10.220;2022-10-31T08:26:14;1.98;;;1.20;;
58468;SDS011;44257;44.804;10.220;2022-10-31T08:28:41;3.03;;;1.20;;
58468;SDS011;44257;44.804;10.220;2022-10-31T08:31:08;2.00;;;1.05;;
58468;SDS011;44257;44.804;10.220;2022-10-31T08:33:38;3.72;;;0.93;;
58468;SDS011;44257;44.804;10.220;2022-10-31T08:36:27;2.35;;;0.98;;
58468;SDS011;44257;44.804;10.220;2022-10-31T08:38:53;3.17;;;1.00;;
58468;SDS011;44257;44.804;10.220;2022-10-31T08:41:19;2.10;;;1.10;;
58468;SDS011;44257;44.804;10.220;2022-10-31T08:43:46;4.47;;;0.95;;
58468;SDS011;44257;44.804;10.220;2022-10-31T08:46:13;4.32;;;2.28;;
58468;SDS011;44257;44.804;10.220;2022-10-31T08:48:41;1.23;;;0.52;;
58468;SDS011;44257;44.804;10.220;2022-10-31T08:51:08;2.72;;;1.15;;
58468;SDS011;44257;44.804;10.220;2022-10-31T08:53:35;2.10;;;1.23;;
58468;SDS011;44257;44.804;10.220;2022-10-31T08:56:19;1.90;;;0.98;;
58468;SDS011;44257;44.804;10.220;2022-10-31T08:58:45;4.05;;;1.13;;
58468;SDS011;44257;44.804;10.220;2022-10-31T09:01:11;4.10;;;1.63;;
58468;SDS011;44257;44.804;10.220;2022-10-31T09:03:37;6.57;;;1.60;;
58468;SDS011;44257;44.804;10.220;2022-10-31T09:06:03;3.03;;;1.10;;
58468;SDS011;44257;44.804;10.220;2022-10-31T09:08:33;2.95;;;1.55;;
58468;SDS011;44257;44.804;10.220;2022-10-31T09:11:01;3.72;;;1.83;;
58468;SDS011;44257;44.804;10.220;2022-10-31T09:13:46;5.57;;;2.55;;
58468;SDS011;44257;44.804;10.220;2022-10-31T09:16:47;5.07;;;2.42;;
58468;SDS011;44257;44.804;10.220;2022-10-31T09:19:20;7.45;;;2.35;;
58468;SDS011;44257;44.804;10.220;2022-10-31T09:21:46;7.25;;;2.10;;
58468;SDS011;44257;44.804;10.220;2022-10-31T09:24:12;4.88;;;2.58;;
58468;SDS011;44257;44.804;10.220;2022-10-31T09:26:40;5.43;;;3.10;;
58468;SDS011;44257;44.804;10.220;2022-10-31T09:29:13;4.53;;;2.28;;
58468;SDS011;44257;44.804;10.220;2022-10-31T09:31:39;5.53;;;2.88;;
58468;SDS011;44257;44.804;10.220;2022-10-31T09:34:15;8.40;;;3.72;;
58468;SDS011;44257;44.804;10.220;2022-10-31T09:36:52;4.68;;;3.33;;
58468;SDS011;44257;44.804;10.220;2022-10-31T09:39:21;6.22;;;3.08;;
58468;SDS011;44257;44.804;10.220;2022-10-31T09:47:43;6.22;;;2.90;;
58468;SDS011;44257;44.804;10.220;2022-10-31T09:50:44;7.55;;;4.43;;
58468;SDS011;44257;44.804;10.220;2022-10-31T09:56:15;6.95;;;3.45;;
58468;SDS011;44257;44.804;10.220;2022-10-31T09:58:49;8.95;;;4.70;;
58468;SDS011;44257;44.804;10.220;2022-10-31T10:10:16;6.88;;;3.50;;
58468;SDS011;44257;44.804;10.220;2022-10-31T10:35:14;8.30;;;4.18;;
58468;SDS011;44257;44.804;10.220;2022-10-31T10:38:20;9.18;;;4.35;;
58468;SDS011;44257;44.804;10.220;2022-10-31T10:40:52;11.75;;;5.90;;
58468;SDS011;44257;44.804;10.220;2022-10-31T10:43:37;7.95;;;4.65;;
58468;SDS011;44257;44.804;10.220;2022-10-31T10:49:15;10.00;;;4.88;;
58468;SDS011;44257;44.804;10.220;2022-10-31T10:59:54;9.60;;;5.40;;
58468;SDS011;44257;44.804;10.220;2022-10-31T11:02:22;9.20;;;4.60;;
58468;SDS011;44257;44.804;10.220;2022-10-31T11:04:53;10.20;;;5.03;;
58468;SDS011;44257;44.804;10.220;2022-10-31T11:07:21;8.00;;;4.18;;
58468;SDS011;44257;44.804;10.220;2022-10-31T11:09:46;8.43;;;4.50;;
58468;SDS011;44257;44.804;10.220;2022-10-31T11:14:48;12.15;;;5.80;;
58468;SDS011;44257;44.804;10.220;2022-10-31T11:17:19;17.00;;;6.35;;
58468;SDS011;44257;44.804;10.220;2022-10-31T11:19:59;13.15;;;6.90;;
58468;SDS011;44257;44.804;10.220;2022-10-31T11:22:26;8.18;;;4.75;;
58468;SDS011;44257;44.804;10.220;2022-10-31T11:24:52;16.08;;;5.18;;
58468;SDS011;44257;44.804;10.220;2022-10-31T11:27:22;11.38;;;5.38;;
58468;SDS011;44257;44.804;10.220;2022-10-31T11:29:49;9.70;;;4.88;;
58468;SDS011;44257;44.804;10.220;2022-10-31T11:34:51;11.70;;;5.50;;
58468;SDS011;44257;44.804;10.220;2022-10-31T11:39:51;10.82;;;6.03;;
58468;SDS011;44257;44.804;10.220;2022-10-31T11:42:22;9.93;;;5.63;;
58468;SDS011;44257;44.804;10.220;2022-10-31T11:44:55;13.35;;;5.05;;
58468;SDS011;44257;44.804;10.220;2022-10-31T11:47:28;8.82;;;5.28;;
58468;SDS011;44257;44.804;10.220;2022-10-31T11:49:57;9.13;;;5.03;;
58468;SDS011;44257;44.804;10.220;2022-10-31T11:52:36;9.32;;;4.75;;
58468;SDS011;44257;44.804;10.220;2022-10-31T11:57:43;11.05;;;5.93;;
58468;SDS011;44257;44.804;10.220;2022-10-31T12:00:31;11.88;;;4.65;;
58468;SDS011;44257;44.804;10.220;2022-10-31T12:06:34;10.35;;;5.50;;
58468;SDS011;44257;44.804;10.220;2022-10-31T12:08:38;10.43;;;5.57;;
58468;SDS011;44257;44.804;10.220;2022-10-31T12:11:18;10.30;;;5.55;;
58468;SDS011;44257;44.804;10.220;2022-10-31T12:17:04;8.95;;;4.72;;
58468;SDS011;44257;44.804;10.220;2022-10-31T12:24:50;8.15;;;4.20;;
58468;SDS011;44257;44.804;10.220;2022-10-31T12:27:47;8.15;;;4.47;;
58468;SDS011;44257;44.804;10.220;2022-10-31T12:30:27;6.80;;;4.25;;
58468;SDS011;44257;44.804;10.220;2022-10-31T12:39:36;7.20;;;3.65;;
58468;SDS011;44257;44.804;10.220;2022-10-31T12:42:30;9.20;;;4.13;;
58468;SDS011;44257;44.804;10.220;2022-10-31T12:45:28;12.73;;;3.92;;
58468;SDS011;44257;44.804;10.220;2022-10-31T12:53:35;7.45;;;4.35;;
58468;SDS011;44257;44.804;10.220;2022-10-31T12:56:28;8.32;;;3.28;;
58468;SDS011;44257;44.804;10.220;2022-10-31T13:04:47;6.82;;;2.92;;
58468;SDS011;44257;44.804;10.220;2022-10-31T13:10:07;8.75;;;3.72;;
58468;SDS011;44257;44.804;10.220;2022-10-31T13:12:45;7.20;;;3.33;;
58468;SDS011;44257;44.804;10.220;2022-10-31T13:15:19;9.95;;;3.90;;
58468;SDS011;44257;44.804;10.220;2022-10-31T13:17:49;8.25;;;3.70;;
58468;SDS011;44257;44.804;10.220;2022-10-31T13:20:24;9.30;;;5.72;;
58468;SDS011;44257;44.804;10.220;2022-10-31T13:23:05;7.70;;;3.78;;
58468;SDS011;44257;44.804;10.220;2022-10-31T13:25:44;5.70;;;3.13;;
58468;SDS011;44257;44.804;10.220;2022-10-31T13:30:49;6.55;;;2.63;;
58468;SDS011;44257;44.804;10.220;2022-10-31T13:33:21;8.05;;;3.50;;
58468;SDS011;44257;44.804;10.220;2022-10-31T13:39:03;17.10;;;4.85;;
58468;SDS011;44257;44.804;10.220;2022-10-31T13:41:53;7.85;;;3.53;;
58468;SDS011;44257;44.804;10.220;2022-10-31T13:44:40;4.57;;;2.42;;
58468;SDS011;44257;44.804;10.220;2022-10-31T13:49:47;7.43;;;3.35;;
58468;SDS011;44257;44.804;10.220;2022-10-31T13:54:44;6.75;;;3.33;;
58468;SDS011;44257;44.804;10.220;2022-10-31T13:59:56;9.27;;;3.53;;
58468;SDS011;44257;44.804;10.220;2022-10-31T14:02:28;6.05;;;3.45;;
58468;SDS011;44257;44.804;10.220;2022-10-31T14:05:03;5.63;;;3.35;;
58468;SDS011;44257;44.804;10.220;2022-10-31T14:07:46;6.50;;;3.10;;
58468;SDS011;44257;44.804;10.220;2022-10-31T14:12:51;4.47;;;2.42;;
58468;SDS011;44257;44.804;10.220;2022-10-31T14:15:21;6.53;;;3.17;;
58468;SDS011;44257;44.804;10.220;2022-10-31T14:18:00;5.50;;;2.72;;
58468;SDS011;44257;44.804;10.220;2022-10-31T14:23:10;7.13;;;3.22;;
58468;SDS011;44257;44.804;10.220;2022-10-31T14:26:06;4.03;;;2.60;;
58468;SDS011;44257;44.804;10.220;2022-10-31T14:28:35;4.75;;;3.10;;
58468;SDS011;44257;44.804;10.220;2022-10-31T14:31:01;7.55;;;3.22;;
58468;SDS011;44257;44.804;10.220;2022-10-31T14:33:30;7.82;;;2.83;;
58468;SDS011;44257;44.804;10.220;2022-10-31T14:41:39;5.97;;;2.67;;
58468;SDS011;44257;44.804;10.220;2022-10-31T14:49:36;5.75;;;3.03;;
58468;SDS011;44257;44.804;10.220;2022-10-31T14:52:14;56.67;;;12.55;;
58468;SDS011;44257;44.804;10.220;2022-10-31T14:54:49;16.48;;;4.32;;
58468;SDS011;44257;44.804;10.220;2022-10-31T14:57:20;7.53;;;4.32;;
58468;SDS011;44257;44.804;10.220;2022-10-31T15:00:04;9.00;;;2.80;;
58468;SDS011;44257;44.804;10.220;2022-10-31T15:05:08;8.57;;;3.25;;
58468;SDS011;44257;44.804;10.220;2022-10-31T15:07:35;6.45;;;2.72;;
58468;SDS011;44257;44.804;10.220;2022-10-31T15:10:05;6.22;;;2.53;;
58468;SDS011;44257;44.804;10.220;2022-10-31T15:12:44;11.38;;;4.72;;
58468;SDS011;44257;44.804;10.220;2022-10-31T15:15:14;6.80;;;2.80;;
58468;SDS011;44257;44.804;10.220;2022-10-31T15:17:55;9.57;;;4.40;;
58468;SDS011;44257;44.804;10.220;2022-10-31T15:20:24;5.50;;;2.47;;
58468;SDS011;44257;44.804;10.220;2022-10-31T15:22:53;6.72;;;2.63;;
58468;SDS011;44257;44.804;10.220;2022-10-31T15:25:22;4.70;;;2.78;;
58468;SDS011;44257;44.804;10.220;2022-10-31T15:27:50;4.82;;;1.95;;
58468;SDS011;44257;44.804;10.220;2022-10-31T15:30:18;4.72;;;2.60;;
58468;SDS011;44257;44.804;10.220;2022-10-31T15:32:48;4.63;;;2.78;;
58468;SDS011;44257;44.804;10.220;2022-10-31T15:35:25;4.97;;;1.98;;
58468;SDS011;44257;44.804;10.220;2022-10-31T15:37:56;3.45;;;2.45;;
58468;SDS011;44257;44.804;10.220;2022-10-31T15:40:23;12.38;;;3.40;;
58468;SDS011;44257;44.804;10.220;2022-10-31T15:42:51;5.95;;;2.45;;
58468;SDS011;44257;44.804;10.220;2022-10-31T15:48:03;3.92;;;2.75;;
58468;SDS011;44257;44.804;10.220;2022-10-31T15:50:39;6.25;;;3.20;;
58468;SDS011;44257;44.804;10.220;2022-10-31T15:53:20;6.95;;;2.70;;
58468;SDS011;44257;44.804;10.220;2022-10-31T15:55:59;5.63;;;3.10;;
58468;SDS011;44257;44.804;10.220;2022-10-31T15:58:35;5.28;;;2.50;;
58468;SDS011;44257;44.804;10.220;2022-10-31T16:04:23;6.38;;;2.25;;
58468;SDS011;44257;44.804;10.220;2022-10-31T16:06:56;7.50;;;2.10;;
58468;SDS011;44257;44.804;10.220;2022-10-31T16:10:39;7.15;;;2.75;;
58468;SDS011;44257;44.804;10.220;2022-10-31T16:12:47;4.05;;;2.30;;
58468;SDS011;44257;44.804;10.220;2022-10-31T16:15:13;4.47;;;2.10;;
58468;SDS011;44257;44.804;10.220;2022-10-31T16:17:41;8.73;;;3.28;;
58468;SDS011;44257;44.804;10.220;2022-10-31T16:20:21;5.85;;;2.53;;
58468;SDS011;44257;44.804;10.220;2022-10-31T16:22:54;6.80;;;2.75;;
58468;SDS011;44257;44.804;10.220;2022-10-31T16:25:35;5.78;;;2.63;;
58468;SDS011;44257;44.804;10.220;2022-10-31T16:28:04;7.50;;;2.72;;
58468;SDS011;44257;44.804;10.220;2022-10-31T16:30:42;7.65;;;3.25;;
58468;SDS011;44257;44.804;10.220;2022-10-31T16:39:02;8.55;;;3.90;;
58468;SDS011;44257;44.804;10.220;2022-10-31T16:41:28;10.05;;;3.67;;
58468;SDS011;44257;44.804;10.220;2022-10-31T16:43:55;4.47;;;3.08;;
58468;SDS011;44257;44.804;10.220;2022-10-31T16:46:24;5.15;;;2.20;;
58468;SDS011;44257;44.804;10.220;2022-10-31T16:48:52;6.15;;;3.00;;
58468;SDS011;44257;44.804;10.220;2022-10-31T16:51:19;9.38;;;3.17;;
58468;SDS011;44257;44.804;10.220;2022-10-31T16:53:45;6.53;;;2.40;;
58468;SDS011;44257;44.804;10.220;2022-10-31T16:56:18;4.18;;;2.63;;
58468;SDS011;44257;44.804;10.220;2022-10-31T16:58:58;5.53;;;2.35;;
58468;SDS011;44257;44.804;10.220;2022-10-31T17:01:25;4.10;;;2.75;;
58468;SDS011;44257;44.804;10.220;2022-10-31T17:03:51;10.27;;;3.35;;
58468;SDS011;44257;44.804;10.220;2022-10-31T17:06:17;7.38;;;2.63;;
58468;SDS011;44257;44.804;10.220;2022-10-31T17:08:43;5.82;;;3.00;;
58468;SDS011;44257;44.804;10.220;2022-10-31T17:11:13;4.78;;;3.13;;
58468;SDS011;44257;44.804;10.220;2022-10-31T17:13:42;18.55;;;3.80;;
58468;SDS011;44257;44.804;10.220;2022-10-31T17:16:08;4.68;;;3.28;;
58468;SDS011;44257;44.804;10.220;2022-10-31T17:18:34;9.70;;;3.45;;
58468;SDS011;44257;44.804;10.220;2022-10-31T17:21:00;4.60;;;3.22;;
58468;SDS011;44257;44.804;10.220;2022-10-31T17:23:28;6.82;;;2.75;;
58468;SDS011;44257;44.804;10.220;2022-10-31T17:25:54;5.78;;;1.90;;
58468;SDS011;44257;44.804;10.220;2022-10-31T17:28:20;6.13;;;2.83;;
58468;SDS011;44257;44.804;10.220;2022-10-31T17:30:46;7.97;;;4.85;;
58468;SDS011;44257;44.804;10.220;2022-10-31T17:33:13;3.75;;;2.90;;
58468;SDS011;44257;44.804;10.220;2022-10-31T17:35:40;4.28;;;3.20;;
58468;SDS011;44257;44.804;10.220;2022-10-31T17:38:07;5.55;;;2.85;;
58468;SDS011;44257;44.804;10.220;2022-10-31T17:40:33;7.28;;;2.95;;
58468;SDS011;44257;44.804;10.220;2022-10-31T17:43:01;5.40;;;3.00;;
58468;SDS011;44257;44.804;10.220;2022-10-31T17:45:26;8.25;;;3.17;;
58468;SDS011;44257;44.804;10.220;2022-10-31T17:47:52;4.20;;;2.78;;
58468;SDS011;44257;44.804;10.220;2022-10-31T17:50:19;4.65;;;3.15;;
58468;SDS011;44257;44.804;10.220;2022-10-31T17:52:47;4.68;;;3.00;;